createdAt,value
2018-07-20T00:02:24.144Z,100582.25
2018-07-20T00:04:52.549Z,100585.00
2018-07-20T00:07:21.080Z,100587.44
2018-07-20T00:09:49.514Z,100583.36
2018-07-20T00:12:18.163Z,100580.48
2018-07-20T00:14:46.801Z,100582.77
2018-07-20T00:17:15.510Z,100580.63
2018-07-20T00:19:58.441Z,100580.80
2018-07-20T00:22:26.864Z,100579.05
2018-07-20T00:24:55.524Z,100572.20
2018-07-20T00:27:24.293Z,100579.71
2018-07-20T00:29:53.184Z,100578.47
2018-07-20T00:32:21.633Z,100583.59
2018-07-20T00:34:50.040Z,100576.41
2018-07-20T00:37:18.505Z,100577.33
2018-07-20T00:39:46.938Z,100575.00
2018-07-20T00:42:15.341Z,100581.16
2018-07-20T00:44:43.734Z,100584.20
2018-07-20T00:47:12.180Z,100584.37
2018-07-20T00:49:40.606Z,100586.27
2018-07-20T00:52:08.992Z,100573.18
2018-07-20T00:54:37.350Z,100567.75
2018-07-20T00:57:05.750Z,100568.47
2018-07-20T00:59:34.165Z,100571.25
2018-07-20T01:02:02.561Z,100564.92
2018-07-20T01:04:31.031Z,100564.01
2018-07-20T01:06:59.366Z,100558.11
2018-07-20T01:09:27.836Z,100558.98
2018-07-20T01:11:56.208Z,100555.42
2018-07-20T01:14:24.600Z,100564.26
2018-07-20T01:16:53.018Z,100559.69
2018-07-20T01:19:21.493Z,100559.86
2018-07-20T01:21:50.179Z,100550.69
2018-07-20T01:24:18.609Z,100557.41
2018-07-20T01:26:47.102Z,100558.33
2018-07-20T01:29:15.518Z,100559.30
2018-07-20T01:31:43.889Z,100557.08
2018-07-20T01:34:12.373Z,100555.02
2018-07-20T01:36:40.748Z,100557.22
2018-07-20T01:39:09.785Z,100551.54
2018-07-20T01:41:38.424Z,100550.52
2018-07-20T01:44:07.046Z,100546.10
2018-07-20T01:46:35.481Z,100543.49
2018-07-20T01:49:04.199Z,100541.31
2018-07-20T01:51:32.940Z,100536.73
2018-07-20T01:54:01.414Z,100537.75
2018-07-20T01:56:29.943Z,100537.41
2018-07-20T01:58:58.411Z,100538.64
2018-07-20T02:01:26.834Z,100534.50
2018-07-20T02:03:55.261Z,100539.91
2018-07-20T02:06:23.687Z,100530.17
2018-07-20T02:08:52.095Z,100530.49
2018-07-20T02:11:20.521Z,100526.83
2018-07-20T02:13:48.928Z,100527.48
2018-07-20T02:16:17.281Z,100529.23
2018-07-20T02:18:45.672Z,100524.75
2018-07-20T02:21:14.022Z,100528.45
2018-07-20T02:24:13.131Z,100527.10
2018-07-20T02:26:41.615Z,100523.73
2018-07-20T02:29:09.941Z,100519.59
2018-07-20T02:31:38.321Z,100512.89
2018-07-20T02:34:06.830Z,100506.80
2018-07-20T02:36:35.287Z,100501.87
2018-07-20T02:39:05.049Z,100500.09
2018-07-20T02:41:33.447Z,100505.92
2018-07-20T02:44:01.935Z,100504.54
2018-07-20T02:46:30.384Z,100506.75
2018-07-20T02:48:58.767Z,100507.27
2018-07-20T02:51:27.168Z,100505.44
2018-07-20T02:53:55.829Z,100509.63
2018-07-20T02:56:24.265Z,100507.72
2018-07-20T02:58:52.674Z,100496.09
2018-07-20T03:01:21.067Z,100491.52
2018-07-20T03:03:49.476Z,100491.64
2018-07-20T03:06:17.854Z,100494.86
2018-07-20T03:08:46.193Z,100490.28
2018-07-20T03:11:14.618Z,100490.14
2018-07-20T03:13:43.257Z,100486.00
2018-07-20T03:16:11.672Z,100486.00
2018-07-20T03:18:40.107Z,100485.83
2018-07-20T03:21:08.531Z,100485.63
2018-07-20T03:23:36.957Z,100487.81
2018-07-20T03:26:06.109Z,100486.47
2018-07-20T03:28:34.584Z,100482.64
2018-07-20T03:31:03.090Z,100480.33
2018-07-20T03:33:31.505Z,100481.88
2018-07-20T03:35:59.957Z,100480.27
2018-07-20T03:38:28.386Z,100481.94
2018-07-20T03:40:56.821Z,100475.56
2018-07-20T03:43:25.237Z,100480.27
2018-07-20T03:45:53.651Z,100480.33
2018-07-20T03:48:22.081Z,100473.24
2018-07-20T03:50:50.448Z,100474.02
2018-07-20T03:53:18.833Z,100470.43
2018-07-20T03:55:47.193Z,100471.27
2018-07-20T03:58:15.589Z,100469.37
2018-07-20T04:00:43.986Z,100465.63
2018-07-20T04:03:12.445Z,100463.77
2018-07-20T04:05:41.571Z,100461.50
2018-07-20T04:08:10.210Z,100465.70
2018-07-20T04:10:39.961Z,100462.27
2018-07-20T04:13:11.476Z,100458.25
2018-07-20T04:15:39.995Z,100461.67
2018-07-20T04:18:08.366Z,100454.63
2018-07-20T04:20:36.797Z,100449.86
2018-07-20T04:23:05.286Z,100454.00
2018-07-20T04:25:33.787Z,100449.05
2018-07-20T04:28:02.298Z,100448.83
2018-07-20T04:30:30.719Z,100448.42
2018-07-20T04:32:59.221Z,100454.22
2018-07-20T04:35:27.585Z,100454.69
2018-07-20T04:37:56.266Z,100463.69
2018-07-20T04:40:24.802Z,100462.81
2018-07-20T04:42:53.239Z,100460.74
2018-07-20T04:45:21.752Z,100454.37
2018-07-20T04:47:50.640Z,100453.59
2018-07-20T04:50:20.665Z,100445.00
2018-07-20T04:52:50.640Z,100442.22
2018-07-20T04:55:19.184Z,100445.95
2018-07-20T04:57:47.685Z,100449.95
2018-07-20T05:00:16.183Z,100451.88
2018-07-20T05:02:44.689Z,100451.51
2018-07-20T05:05:13.152Z,100448.04
2018-07-20T05:07:41.550Z,100445.70
2018-07-20T05:10:09.944Z,100456.36
2018-07-20T05:12:38.321Z,100452.86
2018-07-20T05:15:06.777Z,100457.20
2018-07-20T05:17:35.229Z,100449.26
2018-07-20T05:20:03.637Z,100446.70
2018-07-20T05:22:32.095Z,100450.83
2018-07-20T05:25:00.506Z,100449.23
2018-07-20T05:27:28.992Z,100449.53
2018-07-20T05:29:57.399Z,100443.31
2018-07-20T05:32:25.868Z,100447.47
2018-07-20T05:34:54.340Z,100450.39
2018-07-20T05:37:22.744Z,100446.84
2018-07-20T05:39:51.116Z,100449.44
2018-07-20T05:42:19.526Z,100453.50
2018-07-20T05:44:47.901Z,100448.08
2018-07-20T05:47:16.302Z,100444.95
2018-07-20T05:49:44.691Z,100450.52
2018-07-20T05:52:13.142Z,100453.83
2018-07-20T05:54:41.561Z,100454.08
2018-07-20T05:57:09.995Z,100453.09
2018-07-20T05:59:38.535Z,100445.64
2018-07-20T06:02:07.012Z,100445.31
2018-07-20T06:04:35.444Z,100445.06
2018-07-20T06:07:03.880Z,100452.03
2018-07-20T06:09:32.329Z,100446.25
2018-07-20T06:12:00.836Z,100445.72
2018-07-20T06:14:29.247Z,100445.20
2018-07-20T06:16:57.699Z,100443.55
2018-07-20T06:19:26.127Z,100441.56
2018-07-20T06:21:54.487Z,100443.55
2018-07-20T06:24:22.919Z,100447.11
2018-07-20T06:26:51.314Z,100448.71
2018-07-20T06:29:19.783Z,100454.88
2018-07-20T06:31:48.214Z,100456.63
2018-07-20T06:34:16.668Z,100447.69
2018-07-20T06:36:45.051Z,100445.22
2018-07-20T06:39:13.487Z,100446.45
2018-07-20T06:41:42.531Z,100442.39
2018-07-20T06:44:10.941Z,100448.48
2018-07-20T06:46:39.387Z,100443.48
2018-07-20T06:49:08.296Z,100453.33
2018-07-20T06:51:37.302Z,100446.09
2018-07-20T06:54:05.861Z,100442.94
2018-07-20T06:56:34.364Z,100444.97
2018-07-20T06:59:02.775Z,100445.62
2018-07-20T07:01:31.236Z,100452.95
2018-07-20T07:03:59.661Z,100451.66
2018-07-20T07:06:28.109Z,100456.39
2018-07-20T07:08:56.496Z,100452.42
2018-07-20T07:11:24.912Z,100454.42
2018-07-20T07:13:53.326Z,100447.26
2018-07-20T07:16:21.803Z,100448.21
2018-07-20T07:18:50.169Z,100460.09
2018-07-20T07:21:18.558Z,100461.51
2018-07-20T07:23:46.945Z,100460.32
2018-07-20T07:26:15.441Z,100460.11
2018-07-20T07:28:43.851Z,100458.25
2018-07-20T07:31:12.289Z,100460.39
2018-07-20T07:33:40.662Z,100460.64
2018-07-20T07:36:09.231Z,100459.24
2018-07-20T07:38:37.677Z,100461.20
2018-07-20T07:41:06.206Z,100465.42
2018-07-20T07:43:34.660Z,100460.34
2018-07-20T07:46:03.055Z,100453.97
2018-07-20T07:48:31.468Z,100451.16
2018-07-20T07:50:59.957Z,100453.53
2018-07-20T07:53:28.320Z,100453.97
2018-07-20T07:55:56.814Z,100453.01
2018-07-20T07:58:25.283Z,100457.41
2018-07-20T08:00:53.769Z,100454.14
2018-07-20T08:03:22.244Z,100457.13
2018-07-20T08:05:50.663Z,100451.75
2018-07-20T08:08:19.052Z,100456.57
2018-07-20T08:10:47.519Z,100455.90
2018-07-20T08:13:15.895Z,100449.90
2018-07-20T08:15:44.307Z,100448.97
2018-07-20T08:18:12.723Z,100448.42
2018-07-20T08:20:41.155Z,100451.77
2018-07-20T08:23:09.584Z,100449.92
2018-07-20T08:25:37.989Z,100452.08
2018-07-20T08:28:06.480Z,100445.25
2018-07-20T08:30:34.864Z,100451.09
2018-07-20T08:33:03.432Z,100450.33
2018-07-20T08:35:31.877Z,100450.63
2018-07-20T08:38:00.256Z,100439.30
2018-07-20T08:40:28.846Z,100439.88
2018-07-20T08:42:57.240Z,100442.49
2018-07-20T08:45:25.720Z,100432.50
2018-07-20T08:47:54.199Z,100438.20
2018-07-20T08:50:22.550Z,100428.14
2018-07-20T08:52:50.989Z,100440.50
2018-07-20T08:55:19.602Z,100436.02
2018-07-20T08:57:48.134Z,100438.12
2018-07-20T09:00:16.579Z,100442.78
2018-07-20T09:02:44.936Z,100440.63
2018-07-20T09:05:13.312Z,100433.40
2018-07-20T09:07:41.749Z,100437.34
2018-07-20T09:10:10.379Z,100430.73
2018-07-20T09:12:38.857Z,100436.81
2018-07-20T09:15:07.319Z,100432.33
2018-07-20T09:17:35.750Z,100433.90
2018-07-20T09:20:04.169Z,100429.48
2018-07-20T09:22:32.552Z,100421.75
2018-07-20T09:25:00.952Z,100420.94
2018-07-20T09:27:29.390Z,100420.72
2018-07-20T09:29:57.773Z,100407.84
2018-07-20T09:32:26.257Z,100410.04
2018-07-20T09:34:54.877Z,100407.84
2018-07-20T09:37:23.261Z,100401.28
2018-07-20T09:39:51.706Z,100411.66
2018-07-20T09:42:20.068Z,100407.00
2018-07-20T09:44:48.446Z,100408.79
2018-07-20T09:47:16.794Z,100406.89
2018-07-20T09:49:45.165Z,100402.84
2018-07-20T09:52:13.556Z,100404.88
2018-07-20T09:54:41.961Z,100399.09
2018-07-20T09:57:10.705Z,100402.84
2018-07-20T09:59:39.174Z,100407.11
2018-07-20T10:02:07.592Z,100398.89
2018-07-20T10:04:36.100Z,100398.78
2018-07-20T10:07:04.547Z,100394.02
2018-07-20T10:09:32.905Z,100403.08
2018-07-20T10:12:01.358Z,100388.30
2018-07-20T10:14:29.796Z,100390.66
2018-07-20T10:16:58.247Z,100385.75
2018-07-20T10:19:26.632Z,100387.33
2018-07-20T10:21:55.031Z,100384.72
2018-07-20T10:24:23.409Z,100378.33
2018-07-20T10:26:51.865Z,100377.88
2018-07-20T10:29:20.263Z,100377.39
2018-07-20T10:31:48.712Z,100372.09
2018-07-20T10:34:17.094Z,100378.81
2018-07-20T10:36:45.501Z,100378.11
2018-07-20T10:39:13.872Z,100373.13
2018-07-20T10:41:42.305Z,100372.15
2018-07-20T10:44:10.827Z,100369.84
2018-07-20T10:46:39.232Z,100369.98
2018-07-20T10:49:07.876Z,100369.79
2018-07-20T10:51:36.268Z,100369.55
2018-07-20T10:54:04.680Z,100371.20
2018-07-20T10:56:33.122Z,100369.80
2018-07-20T10:59:01.534Z,100363.89
2018-07-20T11:01:29.972Z,100368.09
2018-07-20T11:03:58.563Z,100365.40
2018-07-20T11:06:26.937Z,100364.45
2018-07-20T11:08:55.349Z,100365.22
2018-07-20T11:11:23.760Z,100356.09
2018-07-20T11:13:52.167Z,100358.36
2018-07-20T11:16:20.873Z,100357.88
2018-07-20T11:18:49.267Z,100355.55
2018-07-20T11:21:17.657Z,100349.98
2018-07-20T11:23:46.106Z,100353.41
2018-07-20T11:26:14.485Z,100352.42
2018-07-20T11:28:42.899Z,100351.99
2018-07-20T11:31:11.342Z,100349.63
2018-07-20T11:33:39.732Z,100355.04
2018-07-20T11:36:08.149Z,100352.80
2018-07-20T11:38:36.517Z,100343.57
2018-07-20T11:41:04.923Z,100341.92
2018-07-20T11:43:33.558Z,100343.13
2018-07-20T11:46:01.956Z,100342.73
2018-07-20T11:48:30.642Z,100342.08
2018-07-20T11:50:59.039Z,100338.33
2018-07-20T11:53:27.536Z,100336.55
2018-07-20T11:55:55.905Z,100331.49
2018-07-20T11:58:24.334Z,100329.84
2018-07-20T12:00:52.721Z,100331.98
2018-07-20T12:03:21.107Z,100327.56
2018-07-20T12:05:49.619Z,100326.87
2018-07-20T12:08:18.063Z,100325.70
2018-07-20T12:10:46.485Z,100327.70
2018-07-20T12:13:14.935Z,100319.55
2018-07-20T12:15:43.392Z,100318.23
2018-07-20T12:18:11.805Z,100323.66
2018-07-20T12:20:40.232Z,100318.63
2018-07-20T12:23:08.569Z,100314.70
2018-07-20T12:25:36.959Z,100315.00
2018-07-20T12:28:05.420Z,100313.76
2018-07-20T12:30:33.803Z,100311.05
2018-07-20T12:33:02.223Z,100314.82
2018-07-20T12:35:30.581Z,100306.78
2018-07-20T12:37:58.990Z,100308.34
2018-07-20T12:40:27.627Z,100306.58
2018-07-20T12:42:56.030Z,100305.09
2018-07-20T12:45:24.529Z,100306.20
2018-07-20T12:47:52.949Z,100304.23
2018-07-20T12:50:21.536Z,100299.19
2018-07-20T12:52:49.874Z,100302.14
2018-07-20T12:55:18.223Z,100295.27
2018-07-20T12:57:46.781Z,100295.39
2018-07-20T13:00:15.220Z,100288.13
2018-07-20T13:02:43.621Z,100291.77
2018-07-20T13:05:11.977Z,100290.11
2018-07-20T13:07:40.460Z,100293.27
2018-07-20T13:10:08.832Z,100283.42
2018-07-20T13:12:37.259Z,100280.78
2018-07-20T13:15:06.246Z,100285.65
2018-07-20T13:17:34.642Z,100276.27
2018-07-20T13:20:03.141Z,100271.75
2018-07-20T13:22:31.611Z,100277.27
2018-07-20T13:25:00.039Z,100271.68
2018-07-20T13:27:28.410Z,100268.53
2018-07-20T13:29:56.798Z,100274.37
2018-07-20T13:32:25.223Z,100268.39
2018-07-20T13:34:53.648Z,100268.44
2018-07-20T13:37:22.154Z,100266.14
2018-07-20T13:39:50.651Z,100259.07
2018-07-20T13:42:19.066Z,100256.70
2018-07-20T13:44:47.440Z,100256.48
2018-07-20T13:47:15.911Z,100253.65
2018-07-20T13:49:44.334Z,100251.70
2018-07-20T13:52:12.840Z,100251.30
2018-07-20T13:54:41.334Z,100243.13
2018-07-20T13:57:09.785Z,100238.17
2018-07-20T13:59:38.174Z,100238.85
2018-07-20T14:02:06.657Z,100235.42
2018-07-20T14:04:35.057Z,100234.05
2018-07-20T14:07:03.564Z,100229.28
2018-07-20T14:09:32.021Z,100221.22
2018-07-20T14:12:00.477Z,100220.64
2018-07-20T14:14:28.904Z,100218.64
2018-07-20T14:16:57.258Z,100222.11
2018-07-20T14:19:25.626Z,100221.78
2018-07-20T14:21:54.083Z,100222.86
2018-07-20T14:24:22.515Z,100215.05
2018-07-20T14:26:50.932Z,100212.79
2018-07-20T14:29:19.305Z,100210.92
2018-07-20T14:31:47.798Z,100213.47
2018-07-20T14:34:16.193Z,100209.13
2018-07-20T14:36:44.639Z,100204.38
2018-07-20T14:39:14.048Z,100210.60
2018-07-20T14:41:42.834Z,100206.20
2018-07-20T14:44:11.251Z,100194.20
2018-07-20T14:46:39.675Z,100193.93
2018-07-20T14:49:08.069Z,100197.38
2018-07-20T14:51:36.466Z,100194.17
2018-07-20T14:54:04.901Z,100193.05
2018-07-20T14:56:33.276Z,100196.72
2018-07-20T14:59:01.660Z,100196.56
2018-07-20T15:01:30.081Z,100189.48
2018-07-20T15:03:58.553Z,100189.56
2018-07-20T15:06:26.950Z,100192.86
2018-07-20T15:08:55.349Z,100187.62
2018-07-20T15:11:23.777Z,100183.39
2018-07-20T15:13:52.276Z,100181.78
2018-07-20T15:16:20.752Z,100175.59
2018-07-20T15:18:49.165Z,100172.33
2018-07-20T15:21:17.688Z,100183.34
2018-07-20T15:23:46.101Z,100176.28
2018-07-20T15:26:14.497Z,100172.83
2018-07-20T15:28:42.887Z,100161.61
2018-07-20T15:31:11.384Z,100163.56
2018-07-20T15:33:39.862Z,100167.07
2018-07-20T15:36:08.387Z,100156.11
2018-07-20T15:38:36.842Z,100154.34
2018-07-20T15:41:05.268Z,100149.78
2018-07-20T15:43:33.717Z,100144.51
2018-07-20T15:46:06.043Z,100148.11
2018-07-20T15:48:30.592Z,100142.98
2018-07-20T15:50:58.997Z,100139.98
2018-07-20T15:53:42.738Z,100138.66
2018-07-20T15:55:56.124Z,100135.02
2018-07-20T15:58:24.486Z,100132.13
2018-07-20T16:00:52.919Z,100128.56
2018-07-20T16:03:21.528Z,100126.42
2018-07-20T16:05:49.959Z,100125.92
2018-07-20T16:08:18.339Z,100126.34
2018-07-20T16:10:46.754Z,100134.12
2018-07-20T16:13:15.160Z,100125.16
2018-07-20T16:15:43.535Z,100117.72
2018-07-20T16:18:12.060Z,100119.41
2018-07-20T16:20:40.476Z,100116.40
2018-07-20T16:23:09.009Z,100111.82
2018-07-20T16:25:37.487Z,100114.63
2018-07-20T16:28:05.870Z,100113.46
2018-07-20T16:30:34.250Z,100113.82
2018-07-20T16:33:02.634Z,100115.58
2018-07-20T16:35:31.053Z,100113.52
2018-07-20T16:37:59.532Z,100116.16
2018-07-20T16:40:28.191Z,100113.00
2018-07-20T16:42:56.705Z,100113.30
2018-07-20T16:45:25.209Z,100111.30
2018-07-20T16:47:53.573Z,100109.05
2018-07-20T16:50:21.949Z,100105.88
2018-07-20T16:52:50.497Z,100105.38
2018-07-20T16:55:18.960Z,100105.22
2018-07-20T16:57:47.333Z,100094.48
2018-07-20T17:00:15.769Z,100090.42
2018-07-20T17:02:44.164Z,100099.55
2018-07-20T17:05:12.583Z,100101.06
2018-07-20T17:07:40.996Z,100096.42
2018-07-20T17:10:09.490Z,100090.65
2018-07-20T17:12:38.103Z,100087.91
2018-07-20T17:15:06.663Z,100087.99
2018-07-20T17:17:35.108Z,100089.36
2018-07-20T17:20:03.690Z,100086.02
2018-07-20T17:22:32.189Z,100082.46
2018-07-20T17:25:00.589Z,100086.41
2018-07-20T17:27:29.011Z,100088.35
2018-07-20T17:29:57.473Z,100081.03
2018-07-20T17:32:25.934Z,100078.41
2018-07-20T17:34:54.391Z,100075.09
2018-07-20T17:37:22.879Z,100083.05
2018-07-20T17:39:51.304Z,100076.99
2018-07-20T17:42:19.806Z,100074.04
2018-07-20T17:44:48.284Z,100077.92
2018-07-20T17:47:16.692Z,100076.02
2018-07-20T17:49:45.142Z,100070.08
2018-07-20T17:52:13.556Z,100072.94
2018-07-20T17:54:41.993Z,100077.08
2018-07-20T17:57:10.661Z,100066.61
2018-07-20T17:59:39.172Z,100067.30
2018-07-20T18:02:07.766Z,100066.25
2018-07-20T18:04:36.407Z,100062.12
2018-07-20T18:07:04.917Z,100060.21
2018-07-20T18:09:33.289Z,100063.59
2018-07-20T18:12:01.802Z,100063.20
2018-07-20T18:14:30.209Z,100063.52
2018-07-20T18:16:58.612Z,100062.50
2018-07-20T18:19:27.036Z,100063.05
2018-07-20T18:21:55.500Z,100062.59
2018-07-20T18:24:23.902Z,100063.03
2018-07-20T18:26:52.354Z,100062.96
2018-07-20T18:29:20.826Z,100062.20
2018-07-20T18:31:49.296Z,100058.73
2018-07-20T18:34:17.789Z,100074.96
2018-07-20T18:36:46.179Z,100070.46
2018-07-20T18:39:14.681Z,100072.59
2018-07-20T18:41:43.131Z,100069.32
2018-07-20T18:44:11.556Z,100072.36
2018-07-20T18:46:40.149Z,100061.94
2018-07-20T18:49:08.760Z,100068.63
2018-07-20T18:51:37.715Z,100072.48
2018-07-20T18:54:06.630Z,100070.02
2018-07-20T18:56:35.611Z,100064.73
2018-07-20T18:59:04.298Z,100062.30
2018-07-20T19:01:32.967Z,100062.12
2018-07-20T19:04:02.412Z,100058.99
2018-07-20T19:06:31.079Z,100064.97
2018-07-20T19:08:59.629Z,100064.45
2018-07-20T19:11:28.460Z,100066.98
2018-07-20T19:13:57.083Z,100066.89
2018-07-20T19:16:25.734Z,100065.63
2018-07-20T19:18:54.504Z,100064.93
2018-07-20T19:21:23.092Z,100071.52
2018-07-20T19:23:51.819Z,100063.84
2018-07-20T19:26:20.523Z,100070.19
2018-07-20T19:28:49.169Z,100074.84
2018-07-20T19:31:17.823Z,100077.84
2018-07-20T19:33:46.965Z,100080.63
2018-07-20T19:36:15.650Z,100086.12
2018-07-20T19:38:44.295Z,100088.77
2018-07-20T19:41:12.899Z,100090.71
2018-07-20T19:43:41.501Z,100092.11
2018-07-20T19:46:10.265Z,100094.98
2018-07-20T19:48:39.131Z,100096.56
2018-07-20T19:51:07.748Z,100089.80
2018-07-20T19:53:36.429Z,100099.32
2018-07-20T19:56:05.177Z,100100.14
2018-07-20T19:58:33.942Z,100102.05
2018-07-20T20:01:02.752Z,100105.29
2018-07-20T20:03:31.437Z,100101.36
2018-07-20T20:06:00.270Z,100103.38
2018-07-20T20:08:29.054Z,100110.87
2018-07-20T20:10:57.891Z,100111.96
2018-07-20T20:13:26.558Z,100115.05
2018-07-20T20:15:55.190Z,100107.41
2018-07-20T20:18:23.686Z,100114.91
2018-07-20T20:20:52.165Z,100115.61
2018-07-20T20:23:20.713Z,100116.92
2018-07-20T20:25:49.323Z,100118.20
2018-07-20T20:28:18.036Z,100125.92
2018-07-20T20:30:46.784Z,100124.38
2018-07-20T20:33:15.345Z,100134.73
2018-07-20T20:35:43.992Z,100133.28
2018-07-20T20:38:12.611Z,100132.20
2018-07-20T20:40:41.171Z,100135.91
2018-07-20T20:43:09.772Z,100135.38
2018-07-20T20:45:38.352Z,100127.66
2018-07-20T20:48:07.353Z,100137.62
2018-07-20T20:50:35.886Z,100132.62
2018-07-20T20:53:04.573Z,100126.88
2018-07-20T20:55:33.321Z,100129.98
2018-07-20T20:58:01.989Z,100133.73
2018-07-20T21:00:30.598Z,100134.28
2018-07-20T21:03:02.731Z,100135.10
2018-07-20T21:05:33.991Z,100132.22
2018-07-20T21:08:04.977Z,100126.72
2018-07-20T21:10:36.385Z,100135.16
2018-07-20T21:13:09.090Z,100129.28
2018-07-20T21:15:42.081Z,100129.28
2018-07-20T21:18:15.444Z,100128.22
2018-07-20T21:20:48.503Z,100122.57
2018-07-20T21:23:20.276Z,100113.97
2018-07-20T21:25:52.368Z,100113.57
2018-07-20T21:28:24.786Z,100114.21
2018-07-20T21:30:57.296Z,100117.25
2018-07-20T21:33:30.049Z,100114.30
2018-07-20T21:36:02.153Z,100122.25
2018-07-20T21:38:33.399Z,100118.77
2018-07-20T21:41:06.096Z,100117.46
2018-07-20T21:43:38.518Z,100117.16
2018-07-20T21:46:14.962Z,100124.13
2018-07-20T21:48:47.092Z,100126.85
2018-07-20T21:51:20.288Z,100130.16
2018-07-20T21:53:55.262Z,100136.20
2018-07-20T21:56:27.825Z,100133.25
2018-07-20T22:04:51.742Z,100141.31
2018-07-20T22:07:29.785Z,100134.58
2018-07-20T22:10:07.410Z,100135.31
2018-07-20T22:15:32.088Z,100139.27
2018-07-20T22:23:47.263Z,100130.86
2018-07-20T22:26:19.140Z,100129.08
2018-07-20T22:28:49.832Z,100136.24
2018-07-20T22:31:21.168Z,100137.02
2018-07-20T22:33:52.232Z,100146.31
2018-07-20T22:36:23.129Z,100129.53
2018-07-20T22:38:54.610Z,100139.92
2018-07-20T22:47:08.561Z,100136.25
2018-07-20T22:49:39.267Z,100136.25
2018-07-20T23:00:38.450Z,100141.87
2018-07-20T23:03:07.007Z,100145.73
2018-07-20T23:05:35.517Z,100140.54
2018-07-20T23:08:04.307Z,100138.32
2018-07-20T23:10:32.931Z,100142.19
2018-07-20T23:13:01.503Z,100142.22
2018-07-20T23:15:33.131Z,100147.04
2018-07-20T23:18:01.732Z,100142.40
2018-07-20T23:20:30.331Z,100142.78
2018-07-20T23:22:58.850Z,100134.66
2018-07-20T23:25:27.429Z,100140.23
2018-07-20T23:27:56.530Z,100136.16
2018-07-20T23:30:26.386Z,100135.23
2018-07-20T23:32:54.812Z,100134.12
2018-07-20T23:35:23.861Z,100133.73
2018-07-20T23:37:52.516Z,100133.44
2018-07-20T23:40:21.029Z,100127.61
2018-07-20T23:42:49.574Z,100127.80
2018-07-20T23:45:18.159Z,100125.20
2018-07-20T23:47:46.791Z,100132.26
2018-07-20T23:50:15.580Z,100135.30
2018-07-20T23:52:44.138Z,100128.91
2018-07-20T23:55:12.755Z,100127.59
2018-07-20T23:57:41.256Z,100128.92
